Time;durP1;ratioP1;P1;durP2;ratioP2;P2;SDS_P1;SDS_P2;PMS_P1;PMS_P2;Temp;Humidity;BMP_temperature;BMP_pressure;BME280_temperature;BME280_humidity;BME280_pressure;Samples;Min_cycle;Max_cycle;Signal;HPM_P1;HPM_P2
2021/01/29 00:00:25;;;;;;;0.85;0.47;;;21.30;52.40;;;;;;5057274;28;20052;-36
2021/01/29 00:02:52;;;;;;;0.55;0.55;;;21.30;52.40;;;;;;5065831;28;20037;-36
2021/01/29 00:05:20;;;;;;;1.30;0.60;;;21.30;52.20;;;;;;5064067;28;20056;-36
2021/01/29 00:07:46;;;;;;;0.47;0.45;;;21.30;52.40;;;;;;5061953;28;20033;-36
2021/01/29 00:10:13;;;;;;;0.80;0.63;;;21.30;52.40;;;;;;5065190;28;20044;-36
2021/01/29 00:12:39;;;;;;;0.57;0.55;;;21.30;52.20;;;;;;5065976;28;20514;-36
2021/01/29 00:15:07;;;;;;;1.50;0.70;;;21.30;52.00;;;;;;5064974;28;20040;-36
2021/01/29 00:17:33;;;;;;;1.77;0.70;;;21.20;52.00;;;;;;5046847;28;20033;-36
2021/01/29 00:20:00;;;;;;;0.53;0.40;;;21.30;51.80;;;;;;5062433;28;20178;-36
2021/01/29 00:22:26;;;;;;;2.15;0.60;;;21.20;51.70;;;;;;5057545;28;20037;-39
2021/01/29 00:24:52;;;;;;;3.53;0.63;;;21.20;50.90;;;;;;5058451;28;20025;-38
2021/01/29 00:27:18;;;;;;;1.58;0.70;;;21.20;50.70;;;;;;5065290;28;20057;-38
2021/01/29 00:29:45;;;;;;;2.60;0.70;;;21.10;51.20;;;;;;5065305;28;20032;-38
2021/01/29 00:32:11;;;;;;;1.60;0.60;;;21.00;51.70;;;;;;5064883;28;20074;-38
2021/01/29 00:34:37;;;;;;;3.53;0.57;;;20.90;52.00;;;;;;5064950;28;20021;-37
2021/01/29 00:37:03;;;;;;;1.88;0.70;;;20.90;52.40;;;;;;5065244;28;20024;-38
2021/01/29 00:39:29;;;;;;;2.35;0.80;;;20.90;52.70;;;;;;5065086;28;20029;-38
2021/01/29 00:41:55;;;;;;;4.40;0.60;;;20.80;52.80;;;;;;5064833;28;20040;-37
2021/01/29 00:44:22;;;;;;;3.25;0.65;;;20.70;53.00;;;;;;5064602;28;20029;-37
2021/01/29 00:46:48;;;;;;;2.80;0.68;;;20.70;53.20;;;;;;5063266;28;20029;-44
2021/01/29 00:49:14;;;;;;;1.17;0.65;;;20.70;53.30;;;;;;5055467;28;20032;-44
2021/01/29 00:51:40;;;;;;;2.08;0.57;;;20.60;53.50;;;;;;5054451;28;20402;-39
2021/01/29 00:54:06;;;;;;;5.68;0.90;;;20.60;53.40;;;;;;5064683;28;20056;-37
2021/01/29 00:56:33;;;;;;;3.58;0.77;;;20.60;54.00;;;;;;5061888;28;20056;-37
2021/01/29 00:58:59;;;;;;;2.47;0.70;;;20.60;54.00;;;;;;5055178;28;20080;-37
2021/01/29 01:01:25;;;;;;;3.63;0.68;;;20.60;53.50;;;;;;5044633;28;20033;-37
2021/01/29 01:03:51;;;;;;;3.47;0.80;;;20.50;53.20;;;;;;5051811;28;20029;-37
2021/01/29 01:06:18;;;;;;;1.95;0.75;;;20.50;53.00;;;;;;5044656;28;20032;-37
2021/01/29 01:08:44;;;;;;;3.42;0.60;;;20.50;53.00;;;;;;5059557;28;20141;-37
2021/01/29 01:11:10;;;;;;;1.48;0.50;;;20.40;52.90;;;;;;5072038;28;20029;-37
2021/01/29 01:13:36;;;;;;;3.13;0.60;;;20.40;52.90;;;;;;5069420;28;20024;-37
2021/01/29 01:16:02;;;;;;;1.17;0.63;;;20.40;52.90;;;;;;5066125;28;20025;-37
2021/01/29 01:18:28;;;;;;;2.90;0.68;;;20.30;52.70;;;;;;5064351;28;20068;-37
2021/01/29 01:20:54;;;;;;;1.98;0.50;;;20.30;52.80;;;;;;5082478;28;20086;-37
2021/01/29 01:23:21;;;;;;;1.35;0.60;;;20.30;52.70;;;;;;5066162;28;20056;-37
2021/01/29 01:25:47;;;;;;;1.00;0.43;;;20.30;52.80;;;;;;5049529;28;20028;-37
2021/01/29 01:28:13;;;;;;;2.67;0.52;;;20.30;52.80;;;;;;5056333;28;20025;-37
2021/01/29 01:30:40;;;;;;;1.08;0.63;;;20.20;52.60;;;;;;5067109;28;20095;-39
2021/01/29 01:33:07;;;;;;;1.90;0.52;;;20.20;52.70;;;;;;5063050;28;20035;-37
2021/01/29 01:35:33;;;;;;;0.80;0.52;;;20.20;52.80;;;;;;5078214;28;20041;-37
2021/01/29 01:37:59;;;;;;;1.93;0.60;;;20.20;52.80;;;;;;5083740;28;20023;-38
2021/01/29 01:40:31;;;;;;;1.05;0.55;;;20.10;52.80;;;;;;5079627;28;20025;-37
2021/01/29 01:42:58;;;;;;;1.40;0.60;;;20.10;52.80;;;;;;5095174;28;20435;-37
2021/01/29 01:45:30;;;;;;;1.58;0.52;;;20.10;52.90;;;;;;5061812;28;20054;-37
2021/01/29 01:47:59;;;;;;;1.60;0.70;;;20.10;52.80;;;;;;5062428;28;20032;-37
2021/01/29 01:50:33;;;;;;;2.22;0.50;;;20.00;52.60;;;;;;5062484;28;20025;-37
2021/01/29 01:53:01;;;;;;;0.68;0.50;;;20.00;52.80;;;;;;5062613;28;20528;-37
2021/01/29 01:55:29;;;;;;;2.67;0.52;;;20.00;52.80;;;;;;5063612;28;20036;-37
2021/01/29 01:57:56;;;;;;;0.77;0.50;;;20.00;52.70;;;;;;5062595;28;20032;-37
2021/01/29 02:00:24;;;;;;;0.80;0.50;;;20.00;52.80;;;;;;5062030;28;20098;-37
2021/01/29 02:02:53;;;;;;;0.73;0.40;;;20.00;52.80;;;;;;5062341;28;20071;-37
2021/01/29 02:05:25;;;;;;;0.60;0.40;;;19.90;52.80;;;;;;5061865;28;20032;-37
2021/01/29 02:07:59;;;;;;;0.43;0.40;;;19.90;52.80;;;;;;5062387;28;20029;-37
2021/01/29 02:10:27;;;;;;;2.45;0.52;;;19.90;52.90;;;;;;5062119;28;20135;-37
2021/01/29 02:12:53;;;;;;;1.52;0.60;;;19.90;52.80;;;;;;5057900;28;20037;-37
2021/01/29 02:15:20;;;;;;;1.13;0.40;;;19.90;52.80;;;;;;5043613;28;20482;-37
2021/01/29 02:18:02;;;;;;;0.70;0.60;;;19.80;52.90;;;;;;5043565;28;20026;-37
2021/01/29 02:20:41;;;;;;;1.42;0.50;;;19.80;52.80;;;;;;5042156;28;20030;-38
2021/01/29 02:23:16;;;;;;;0.98;0.60;;;19.80;52.90;;;;;;5043925;28;20555;-37
2021/01/29 02:26:12;;;;;;;1.42;0.60;;;19.80;52.90;;;;;;5063337;28;20103;-37
2021/01/29 02:29:09;;;;;;;1.15;0.50;;;19.80;53.50;;;;;;5060894;28;20029;-37
2021/01/29 02:31:54;;;;;;;0.55;0.43;;;19.80;53.10;;;;;;5061851;28;20032;-37
2021/01/29 02:34:58;;;;;;;0.60;0.50;;;19.80;53.10;;;;;;5053699;28;20215;-37
2021/01/29 02:37:40;;;;;;;0.82;0.60;;;19.80;53.10;;;;;;5043250;28;20064;-37
2021/01/29 02:40:21;;;;;;;1.60;0.60;;;19.80;53.10;;;;;;5043404;28;20120;-37
2021/01/29 02:43:17;;;;;;;0.47;0.40;;;19.80;53.10;;;;;;5061776;28;20037;-37
2021/01/29 02:45:51;;;;;;;1.23;0.43;;;19.80;53.00;;;;;;5065111;28;20049;-37
2021/01/29 02:48:20;;;;;;;0.80;0.43;;;19.70;53.00;;;;;;5066002;28;20052;-37
2021/01/29 02:51:11;;;;;;;0.80;0.50;;;19.70;53.00;;;;;;5065408;28;20025;-37
2021/01/29 02:53:42;;;;;;;2.25;0.60;;;19.70;52.90;;;;;;5045650;28;20029;-37
2021/01/29 02:56:20;;;;;;;0.50;0.50;;;19.70;52.90;;;;;;5062063;28;20042;-37
2021/01/29 02:59:27;;;;;;;0.65;0.50;;;19.70;52.90;;;;;;5055853;28;20049;-36
2021/01/29 03:02:24;;;;;;;0.82;0.32;;;19.70;52.80;;;;;;5085652;28;20082;-37
2021/01/29 03:05:10;;;;;;;1.00;0.50;;;19.70;53.00;;;;;;5073048;28;20760;-37
2021/01/29 03:08:07;;;;;;;0.70;0.43;;;19.60;52.90;;;;;;5077183;28;20033;-37
2021/01/29 03:10:36;;;;;;;1.00;0.30;;;19.60;52.80;;;;;;5061405;28;20045;-37
2021/01/29 03:13:06;;;;;;;2.15;0.50;;;19.60;52.80;;;;;;5081714;28;20116;-37
2021/01/29 03:15:38;;;;;;;0.47;0.40;;;19.60;52.90;;;;;;5061986;28;20028;-37
2021/01/29 03:18:29;;;;;;;0.68;0.43;;;19.60;52.90;;;;;;5080649;28;20037;-37
2021/01/29 03:21:14;;;;;;;0.50;0.30;;;19.60;52.90;;;;;;5081090;28;20075;-37
2021/01/29 03:23:49;;;;;;;1.20;0.80;;;19.60;52.90;;;;;;5071742;28;20080;-37
2021/01/29 03:26:24;;;;;;;0.77;0.40;;;19.60;52.90;;;;;;5065066;28;20033;-37
2021/01/29 03:28:56;;;;;;;0.85;0.40;;;19.60;52.90;;;;;;5065002;28;20402;-37
2021/01/29 03:31:23;;;;;;;1.40;0.73;;;19.60;52.80;;;;;;5063845;28;20033;-36
2021/01/29 03:33:55;;;;;;;0.47;0.40;;;19.60;52.70;;;;;;5065000;28;20025;-37
2021/01/29 03:36:21;;;;;;;0.50;0.40;;;19.60;52.80;;;;;;5083133;28;20089;-37
2021/01/29 03:38:56;;;;;;;0.63;0.52;;;19.50;52.80;;;;;;5069359;28;20037;-37
2021/01/29 03:41:51;;;;;;;0.80;0.50;;;19.50;52.80;;;;;;5073592;28;20098;-37
2021/01/29 03:44:19;;;;;;;1.00;0.43;;;19.50;52.90;;;;;;5063099;28;20060;-37
2021/01/29 03:47:03;;;;;;;0.65;0.50;;;19.50;52.70;;;;;;5064826;28;20123;-37
2021/01/29 03:49:54;;;;;;;0.65;0.40;;;19.50;52.90;;;;;;5064657;28;20044;-37
2021/01/29 03:52:55;;;;;;;0.57;0.40;;;19.50;52.80;;;;;;5065569;28;20037;-36
2021/01/29 03:55:45;;;;;;;0.88;0.60;;;19.50;52.80;;;;;;5020155;28;20467;-37
2021/01/29 03:58:54;;;;;;;0.93;0.50;;;19.40;52.70;;;;;;4988535;28;20034;-37
2021/01/29 04:01:49;;;;;;;1.33;0.50;;;19.40;52.80;;;;;;5039721;28;20038;-37
2021/01/29 04:04:26;;;;;;;0.60;0.50;;;19.40;53.00;;;;;;5014991;28;20057;-37
2021/01/29 04:07:16;;;;;;;1.75;0.45;;;19.40;52.80;;;;;;5019368;28;20014;-37
2021/01/29 04:10:02;;;;;;;0.40;0.30;;;19.40;52.90;;;;;;5039242;28;20123;-37
2021/01/29 04:12:44;;;;;;;0.60;0.50;;;19.40;53.00;;;;;;5026812;28;20090;-37
2021/01/29 04:15:23;;;;;;;0.50;0.50;;;19.40;52.80;;;;;;5018186;28;20035;-37
2021/01/29 04:17:59;;;;;;;0.50;0.40;;;19.40;52.80;;;;;;5017339;28;20042;-37
2021/01/29 04:20:36;;;;;;;0.80;0.50;;;19.40;52.90;;;;;;5004819;28;20078;-37
2021/01/29 04:23:05;;;;;;;0.50;0.45;;;19.30;52.70;;;;;;5004529;28;20049;-37
2021/01/29 04:25:41;;;;;;;0.77;0.55;;;19.30;52.60;;;;;;5004270;28;20026;-37
2021/01/29 04:28:09;;;;;;;0.80;0.50;;;19.30;52.70;;;;;;5001537;28;20029;-37
2021/01/29 04:30:36;;;;;;;1.73;0.50;;;19.30;52.80;;;;;;5054510;28;20021;-37
2021/01/29 04:33:07;;;;;;;1.37;0.30;;;19.30;52.80;;;;;;5070052;28;20044;-37
2021/01/29 04:35:33;;;;;;;1.02;0.60;;;19.30;52.70;;;;;;5070452;28;20273;-37
2021/01/29 04:38:07;;;;;;;0.57;0.50;;;19.30;52.70;;;;;;5075404;28;20032;-37
2021/01/29 04:41:09;;;;;;;0.70;0.50;;;19.30;52.80;;;;;;5074434;28;20025;-37
2021/01/29 04:43:53;;;;;;;0.73;0.50;;;19.30;52.70;;;;;;5070758;28;20067;-37
2021/01/29 04:46:49;;;;;;;0.50;0.40;;;19.20;52.70;;;;;;5070450;28;20088;-37
2021/01/29 04:49:21;;;;;;;0.52;0.50;;;19.20;52.80;;;;;;5046069;28;20040;-37
2021/01/29 04:51:53;;;;;;;0.60;0.50;;;19.20;52.60;;;;;;5068321;28;20022;-37
2021/01/29 04:54:40;;;;;;;0.43;0.38;;;19.20;52.70;;;;;;5069039;28;20092;-37
2021/01/29 04:57:44;;;;;;;0.50;0.50;;;19.20;52.60;;;;;;5073365;28;20036;-36
2021/01/29 05:00:42;;;;;;;0.45;0.40;;;19.20;52.80;;;;;;5060436;28;20663;-37
2021/01/29 05:03:20;;;;;;;0.82;0.65;;;19.20;52.70;;;;;;5073259;28;20116;-37
2021/01/29 05:06:16;;;;;;;0.57;0.40;;;19.20;52.60;;;;;;5067258;28;20047;-37
2021/01/29 05:09:17;;;;;;;0.60;0.50;;;19.10;52.80;;;;;;5064055;28;20524;-38
2021/01/29 05:12:17;;;;;;;0.95;0.60;;;19.10;52.60;;;;;;5071098;28;20032;-36
2021/01/29 05:15:11;;;;;;;0.50;0.45;;;19.10;52.80;;;;;;5069075;28;20032;-37
2021/01/29 05:18:14;;;;;;;0.40;0.30;;;19.10;52.80;;;;;;5070440;28;20116;-36
2021/01/29 05:20:56;;;;;;;0.90;0.68;;;19.10;52.80;;;;;;5070695;28;20057;-37
2021/01/29 05:23:37;;;;;;;0.43;0.40;;;19.10;52.80;;;;;;5072321;28;20092;-37
2021/01/29 05:26:43;;;;;;;0.65;0.50;;;19.00;52.80;;;;;;5067781;28;20036;-37
2021/01/29 05:29:46;;;;;;;0.63;0.50;;;19.00;52.80;;;;;;5018137;28;20037;-37
2021/01/29 05:32:50;;;;;;;0.63;0.47;;;19.00;53.00;;;;;;5018588;28;20044;-37
2021/01/29 05:35:32;;;;;;;0.50;0.40;;;19.00;53.30;;;;;;4991643;28;20033;-37
2021/01/29 05:38:07;;;;;;;0.32;0.32;;;19.00;52.90;;;;;;5004091;28;20053;-37
2021/01/29 05:40:45;;;;;;;0.77;0.60;;;19.00;52.80;;;;;;5005029;28;20089;-37
2021/01/29 05:43:16;;;;;;;;;;;19.00;52.90;;;;;;5021545;28;20034;-37
2021/01/29 05:46:00;;;;;;;1.27;0.40;;;19.00;53.00;;;;;;5021443;28;19960;-37
2021/01/29 05:49:19;;;;;;;1.30;0.50;;;18.90;52.90;;;;;;5004649;28;20049;-37
2021/01/29 05:52:10;;;;;;;1.05;0.60;;;18.90;53.00;;;;;;4937621;29;20044;-37
2021/01/29 05:54:58;;;;;;;1.10;0.50;;;18.90;52.90;;;;;;4943959;29;20034;-37
2021/01/29 05:57:58;;;;;;;0.70;0.57;;;18.90;52.90;;;;;;4943790;29;20039;-37
2021/01/29 06:00:42;;;;;;;0.60;0.40;;;18.90;53.00;;;;;;4943510;29;20139;-36
2021/01/29 06:03:27;;;;;;;0.40;0.30;;;18.90;52.90;;;;;;4923185;29;20032;-37
2021/01/29 06:06:17;;;;;;;0.38;0.38;;;18.90;52.90;;;;;;5007434;28;20792;-37
2021/01/29 06:09:04;;;;;;;0.63;0.55;;;18.80;52.80;;;;;;5001554;28;20092;-37
2021/01/29 06:12:05;;;;;;;1.48;0.70;;;18.80;53.00;;;;;;5007932;28;20212;-37
2021/01/29 06:15:18;;;;;;;0.82;0.40;;;18.80;52.90;;;;;;5020905;28;20025;-37
2021/01/29 06:17:59;;;;;;;0.75;0.52;;;18.80;52.90;;;;;;4962611;29;20115;-37
2021/01/29 06:21:01;;;;;;;0.40;0.40;;;18.80;52.90;;;;;;4983408;28;20455;-37
2021/01/29 06:23:40;;;;;;;0.47;0.47;;;18.80;52.90;;;;;;4988391;28;20039;-37
2021/01/29 06:26:34;;;;;;;0.35;0.35;;;18.80;53.10;;;;;;5047769;28;20060;-37
2021/01/29 06:29:09;;;;;;;0.73;0.55;;;18.70;52.80;;;;;;5067451;28;20037;-36
2021/01/29 06:31:38;;;;;;;0.70;0.50;;;18.70;52.90;;;;;;5067566;28;20056;-37
2021/01/29 06:34:36;;;;;;;0.45;0.40;;;18.70;52.90;;;;;;5048450;28;20045;-37
2021/01/29 06:37:27;;;;;;;1.27;0.30;;;18.70;52.80;;;;;;5033323;28;20032;-37
2021/01/29 06:40:22;;;;;;;0.60;0.40;;;18.70;52.90;;;;;;5047346;28;20022;-37
2021/01/29 06:43:06;;;;;;;0.40;0.40;;;18.70;52.90;;;;;;5047079;28;20033;-37
2021/01/29 06:45:54;;;;;;;1.25;0.60;;;18.70;52.90;;;;;;5047387;28;20022;-37
2021/01/29 06:48:35;;;;;;;1.67;0.52;;;18.70;53.00;;;;;;5047380;28;20061;-37
2021/01/29 06:51:19;;;;;;;0.50;0.50;;;18.60;52.90;;;;;;5046997;28;20021;-36
2021/01/29 06:53:57;;;;;;;0.68;0.47;;;18.60;52.90;;;;;;5066310;28;20639;-37
2021/01/29 06:56:50;;;;;;;1.88;0.50;;;18.60;52.80;;;;;;5090052;28;20093;-37
2021/01/29 06:59:42;;;;;;;0.57;0.40;;;18.60;53.00;;;;;;5069721;28;20041;-37
2021/01/29 07:02:36;;;;;;;0.40;0.40;;;18.60;52.90;;;;;;5068282;28;20064;-36
2021/01/29 07:05:14;;;;;;;0.70;0.50;;;18.60;52.90;;;;;;5068122;28;20024;-37
2021/01/29 07:07:57;;;;;;;0.68;0.50;;;18.60;52.90;;;;;;5069629;28;20068;-37
2021/01/29 07:11:07;;;;;;;0.63;0.47;;;18.60;53.00;;;;;;5069879;28;20062;-36
2021/01/29 07:14:08;;;;;;;0.80;0.50;;;18.50;53.00;;;;;;5050102;28;20909;-36
2021/01/29 07:17:09;;;;;;;0.65;0.50;;;18.50;53.00;;;;;;5049784;28;20045;-37
2021/01/29 07:20:00;;;;;;;0.73;0.47;;;18.50;52.90;;;;;;5036574;28;20056;-37
2021/01/29 07:22:52;;;;;;;0.40;0.40;;;18.50;52.90;;;;;;5049838;28;20045;-37
2021/01/29 07:25:47;;;;;;;0.70;0.50;;;18.50;53.00;;;;;;5050115;28;20037;-37
2021/01/29 07:28:38;;;;;;;0.43;0.38;;;18.50;53.10;;;;;;5027046;28;20104;-37
2021/01/29 07:31:19;;;;;;;0.70;0.50;;;18.50;53.00;;;;;;5024317;28;20022;-37
2021/01/29 07:34:15;;;;;;;0.60;0.45;;;18.50;53.00;;;;;;5023650;28;20041;-37
2021/01/29 07:36:53;;;;;;;0.45;0.45;;;18.40;53.00;;;;;;4927261;29;20032;-37
2021/01/29 07:39:53;;;;;;;0.50;0.40;;;18.40;53.00;;;;;;4926915;29;20111;-36
2021/01/29 07:42:37;;;;;;;5.15;0.50;;;18.40;53.10;;;;;;4926944;29;20052;-36
2021/01/29 07:45:15;;;;;;;0.40;0.40;;;18.40;53.20;;;;;;4926761;29;20059;-37
2021/01/29 07:47:59;;;;;;;0.52;0.47;;;18.40;53.00;;;;;;4927298;29;20049;-37
2021/01/29 07:50:46;;;;;;;0.55;0.40;;;18.40;53.10;;;;;;4890944;29;20025;-37
2021/01/29 07:53:18;;;;;;;0.30;0.30;;;18.40;53.10;;;;;;4888472;29;20109;-37
2021/01/29 07:55:54;;;;;;;0.45;0.40;;;18.30;53.00;;;;;;4888354;29;20092;-37
2021/01/29 07:58:36;;;;;;;0.47;0.40;;;18.30;52.90;;;;;;4888733;29;20065;-37
2021/01/29 08:01:10;;;;;;;0.70;0.55;;;18.40;53.10;;;;;;4887776;29;20063;-37
2021/01/29 08:04:15;;;;;;;0.60;0.50;;;18.30;52.90;;;;;;4878958;29;20037;-37
2021/01/29 08:07:12;;;;;;;1.00;0.55;;;18.30;53.00;;;;;;4926681;29;20050;-37
2021/01/29 08:09:39;;;;;;;0.60;0.38;;;18.30;53.00;;;;;;4926885;29;20036;-36
2021/01/29 08:12:09;;;;;;;0.80;0.50;;;18.30;53.00;;;;;;4916720;28;20068;-37
2021/01/29 08:14:52;;;;;;;0.40;0.40;;;18.30;53.00;;;;;;5006751;28;20061;-37
2021/01/29 08:18:15;;;;;;;1.13;0.70;;;18.30;53.10;;;;;;5022604;28;20038;-37
2021/01/29 08:21:15;;;;;;;0.60;0.40;;;18.30;53.10;;;;;;4967586;28;20456;-36
2021/01/29 08:24:18;;;;;;;0.95;0.50;;;18.20;53.10;;;;;;4970258;28;20371;-44
2021/01/29 08:27:20;;;;;;;0.30;0.30;;;18.20;53.20;;;;;;4984132;28;20066;-37
2021/01/29 08:30:06;;;;;;;0.52;0.45;;;18.20;53.20;;;;;;4958013;28;20039;-37
2021/01/29 08:32:55;;;;;;;0.57;0.52;;;18.20;53.20;;;;;;4964384;29;20035;-37
2021/01/29 08:35:41;;;;;;;0.60;0.50;;;18.20;53.10;;;;;;4949344;29;20059;-36
2021/01/29 08:38:28;;;;;;;0.80;0.50;;;18.20;53.20;;;;;;4950968;29;20114;-36
2021/01/29 08:41:12;;;;;;;0.95;0.50;;;18.20;53.20;;;;;;4965718;28;20066;-36
2021/01/29 08:43:55;;;;;;;0.60;0.60;;;18.20;53.20;;;;;;4990969;28;20570;-37
2021/01/29 08:46:24;;;;;;;0.60;0.40;;;18.10;53.20;;;;;;5007326;28;20097;-37
2021/01/29 08:49:14;;;;;;;0.73;0.50;;;18.10;53.20;;;;;;5022667;28;20038;-37
2021/01/29 08:52:07;;;;;;;0.80;0.55;;;18.10;53.30;;;;;;5002749;28;20121;-37
2021/01/29 08:54:42;;;;;;;0.80;0.38;;;18.10;53.20;;;;;;5030248;28;20414;-37
2021/01/29 08:57:42;;;;;;;0.88;0.57;;;18.10;53.20;;;;;;5064604;28;20540;-37
2021/01/29 09:00:10;;;;;;;;;;;18.10;53.20;;;;;;5063739;28;20877;-36
2021/01/29 09:03:08;;;;;;;0.43;0.43;;;18.10;53.30;;;;;;5064152;28;20479;-36
2021/01/29 09:05:34;;;;;;;0.50;0.50;;;18.10;53.80;;;;;;5067631;28;20029;-37
2021/01/29 09:08:05;;;;;;;0.43;0.43;;;18.00;53.30;;;;;;5058181;28;20059;-37
2021/01/29 09:11:10;;;;;;;0.65;0.50;;;18.00;53.20;;;;;;5032148;28;20029;-37
2021/01/29 09:13:36;;;;;;;0.47;0.43;;;18.00;53.30;;;;;;5021761;28;20045;-37
2021/01/29 09:16:08;;;;;;;0.55;0.50;;;18.00;53.20;;;;;;4989242;28;20073;-37
2021/01/29 09:18:40;;;;;;;0.63;0.50;;;18.00;53.20;;;;;;5022086;28;20064;-36
2021/01/29 09:21:14;;;;;;;0.82;0.60;;;18.00;53.30;;;;;;4989648;28;20068;-36
2021/01/29 09:23:48;;;;;;;0.52;0.50;;;18.00;53.20;;;;;;5021806;28;20049;-36
2021/01/29 09:26:25;;;;;;;0.70;0.57;;;18.00;53.30;;;;;;5021969;28;20100;-37
2021/01/29 09:29:19;;;;;;;0.90;0.47;;;18.00;53.30;;;;;;5006140;28;20026;-37
2021/01/29 09:31:47;;;;;;;0.70;0.50;;;17.90;53.20;;;;;;5001266;28;20101;-37
2021/01/29 09:34:22;;;;;;;0.55;0.40;;;17.90;53.40;;;;;;4989582;28;20034;-37
2021/01/29 09:36:51;;;;;;;0.40;0.40;;;17.90;53.30;;;;;;4989765;28;20921;-36
2021/01/29 09:39:50;;;;;;;0.40;0.40;;;17.90;53.30;;;;;;5005001;28;20036;-36
2021/01/29 09:42:24;;;;;;;0.63;0.60;;;17.90;53.30;;;;;;4931295;29;20086;-37
2021/01/29 09:44:59;;;;;;;0.60;0.50;;;17.90;53.40;;;;;;4943510;29;20517;-37
2021/01/29 09:47:25;;;;;;;0.90;0.60;;;17.90;53.40;;;;;;4943980;29;20725;-37
2021/01/29 09:50:02;;;;;;;0.52;0.50;;;17.90;53.30;;;;;;4963536;28;20042;-36
2021/01/29 09:53:04;;;;;;;0.70;0.60;;;17.90;53.30;;;;;;4982709;28;20042;-37
2021/01/29 09:56:00;;;;;;;0.50;0.50;;;17.80;53.30;;;;;;4974680;28;20626;-36
2021/01/29 09:59:02;;;;;;;0.50;0.50;;;17.80;53.50;;;;;;4989477;28;20050;-37
2021/01/29 10:01:35;;;;;;;0.63;0.50;;;17.80;53.30;;;;;;5001978;28;20043;-36
2021/01/29 10:04:17;;;;;;;0.40;0.40;;;17.80;53.40;;;;;;4969259;28;20030;-36
2021/01/29 10:06:56;;;;;;;0.50;0.40;;;17.80;53.40;;;;;;4970960;28;20057;-37
2021/01/29 10:09:47;;;;;;;0.68;0.60;;;17.80;53.40;;;;;;5001811;28;20061;-36
2021/01/29 10:12:22;;;;;;;0.60;0.60;;;17.80;53.40;;;;;;4984063;28;20034;-37
2021/01/29 10:14:58;;;;;;;0.82;0.60;;;17.80;53.50;;;;;;4985392;28;20053;-36
2021/01/29 10:17:28;;;;;;;0.52;0.52;;;17.80;53.60;;;;;;5006667;28;20116;-36
2021/01/29 10:19:59;;;;;;;1.25;0.60;;;17.70;53.30;;;;;;5062174;28;20108;-36
2021/01/29 10:22:57;;;;;;;0.88;0.65;;;17.70;53.40;;;;;;5061935;28;20110;-36
2021/01/29 10:25:25;;;;;;;0.50;0.50;;;17.70;53.50;;;;;;5063494;28;20637;-36
2021/01/29 10:28:10;;;;;;;0.60;0.50;;;17.70;53.40;;;;;;5062167;28;20596;-37
2021/01/29 10:30:37;;;;;;;0.85;0.70;;;17.70;53.40;;;;;;5063138;28;20109;-37
2021/01/29 10:33:23;;;;;;;0.63;0.55;;;17.70;53.40;;;;;;5062010;28;20389;-37
2021/01/29 10:36:08;;;;;;;0.70;0.60;;;17.70;53.50;;;;;;5061870;28;20448;-37
2021/01/29 10:38:42;;;;;;;0.82;0.60;;;17.70;53.40;;;;;;5062075;28;20056;-36
2021/01/29 10:41:32;;;;;;;0.90;0.50;;;17.70;53.50;;;;;;5062213;28;20033;-36
2021/01/29 10:44:12;;;;;;;2.08;0.55;;;17.70;53.40;;;;;;5042910;28;20029;-36
2021/01/29 10:47:06;;;;;;;0.60;0.50;;;17.70;54.00;;;;;;5042171;28;20030;-36
2021/01/29 10:49:57;;;;;;;0.45;0.40;;;17.60;53.40;;;;;;5043370;28;20022;-36
2021/01/29 10:53:00;;;;;;;0.47;0.47;;;17.60;53.40;;;;;;5058977;28;20033;-36
2021/01/29 10:55:33;;;;;;;0.93;0.70;;;17.60;53.50;;;;;;5043118;28;20093;-37
2021/01/29 10:58:18;;;;;;;0.60;0.45;;;17.60;53.40;;;;;;5047459;28;20036;-37
2021/01/29 11:01:09;;;;;;;0.70;0.50;;;17.60;53.60;;;;;;5061875;28;20045;-36
2021/01/29 11:03:45;;;;;;;1.27;0.60;;;17.60;53.50;;;;;;5056731;28;20039;-36
2021/01/29 11:06:13;;;;;;;0.95;0.80;;;17.60;53.60;;;;;;5057107;28;20034;-37
2021/01/29 11:08:43;;;;;;;0.75;0.60;;;17.60;53.60;;;;;;5045608;28;20051;-36
2021/01/29 11:11:26;;;;;;;0.88;0.60;;;17.60;53.50;;;;;;5060620;28;20473;-36
2021/01/29 11:14:03;;;;;;;0.70;0.55;;;17.60;53.70;;;;;;5080209;28;20047;-37
2021/01/29 11:16:46;;;;;;;1.17;0.57;;;17.60;53.70;;;;;;5065671;28;20032;-36
2021/01/29 11:19:51;;;;;;;0.70;0.50;;;17.50;53.50;;;;;;5065834;28;20048;-37
2021/01/29 11:22:34;;;;;;;0.77;0.60;;;17.50;53.60;;;;;;5034497;28;20038;-37
2021/01/29 11:25:13;;;;;;;1.05;0.55;;;17.50;53.60;;;;;;5007751;28;20098;-36
2021/01/29 11:27:56;;;;;;;0.60;0.55;;;17.50;53.50;;;;;;5007823;28;20037;-36
2021/01/29 11:30:33;;;;;;;0.70;0.50;;;17.50;53.50;;;;;;5012087;28;20068;-37
2021/01/29 11:33:01;;;;;;;0.93;0.50;;;17.50;53.60;;;;;;5012029;28;20083;-36
2021/01/29 11:35:41;;;;;;;1.02;0.50;;;17.50;53.60;;;;;;5011192;28;20036;-37
2021/01/29 11:38:26;;;;;;;0.63;0.60;;;17.50;53.50;;;;;;5043901;28;20087;-36
2021/01/29 11:41:11;;;;;;;0.80;0.65;;;17.50;53.60;;;;;;5044093;28;20037;-36
2021/01/29 11:44:14;;;;;;;1.20;0.70;;;17.50;53.50;;;;;;5049391;28;20033;-36
2021/01/29 11:46:48;;;;;;;0.45;0.43;;;17.40;54.10;;;;;;4984515;28;20082;-36
2021/01/29 11:49:26;;;;;;;1.35;0.60;;;17.40;53.50;;;;;;5001123;28;20455;-36
2021/01/29 11:51:57;;;;;;;0.57;0.50;;;17.40;53.60;;;;;;4995235;28;20110;-36
2021/01/29 11:54:35;;;;;;;0.75;0.57;;;17.40;53.60;;;;;;5004533;28;20121;-36
2021/01/29 11:57:33;;;;;;;1.13;0.70;;;17.40;53.50;;;;;;5007292;28;20534;-36
2021/01/29 12:00:07;;;;;;;0.88;0.60;;;17.40;53.60;;;;;;5006770;28;20054;-36
2021/01/29 12:02:38;;;;;;;0.63;0.50;;;17.40;53.60;;;;;;5007210;28;20053;-36
2021/01/29 12:05:24;;;;;;;0.82;0.60;;;17.40;53.70;;;;;;5006996;28;20080;-37
2021/01/29 12:08:17;;;;;;;0.70;0.65;;;17.40;53.60;;;;;;5007050;28;20141;-36
2021/01/29 12:10:52;;;;;;;0.57;0.50;;;17.40;53.60;;;;;;5022631;28;20026;-36
2021/01/29 12:13:39;;;;;;;0.80;0.60;;;17.40;53.70;;;;;;5003548;28;20112;-37
2021/01/29 12:16:12;;;;;;;0.95;0.55;;;17.40;53.60;;;;;;5003687;28;20089;-37
2021/01/29 12:18:38;;;;;;;0.60;0.60;;;17.40;53.60;;;;;;4986965;28;20038;-36
2021/01/29 12:21:18;;;;;;;0.77;0.60;;;17.30;53.60;;;;;;5041933;28;20041;-36
2021/01/29 12:24:02;;;;;;;0.95;0.60;;;17.30;53.70;;;;;;5064178;28;20063;-36
2021/01/29 12:26:41;;;;;;;0.40;0.40;;;17.30;53.70;;;;;;5065378;28;20021;-36
2021/01/29 12:29:23;;;;;;;0.88;0.68;;;17.30;53.60;;;;;;5065584;28;20707;-37
2021/01/29 12:32:13;;;;;;;0.45;0.45;;;17.30;53.70;;;;;;5063904;28;20029;-36
2021/01/29 12:34:43;;;;;;;0.75;0.40;;;17.30;53.70;;;;;;5045440;28;20069;-36
2021/01/29 12:37:23;;;;;;;0.70;0.60;;;17.30;53.70;;;;;;5077061;28;20025;-37
2021/01/29 12:40:23;;;;;;;0.80;0.55;;;17.30;53.70;;;;;;5090865;28;20025;-37
2021/01/29 12:43:02;;;;;;;0.93;0.68;;;17.30;53.70;;;;;;5058370;28;20041;-36
2021/01/29 12:45:39;;;;;;;0.65;0.60;;;17.30;53.70;;;;;;5063032;28;20089;-36
2021/01/29 12:48:15;;;;;;;1.77;0.60;;;17.30;53.70;;;;;;5063629;28;20032;-36
2021/01/29 12:50:58;;;;;;;1.00;0.52;;;17.30;53.70;;;;;;5063490;28;20028;-36
2021/01/29 12:53:52;;;;;;;1.10;0.63;;;17.20;53.60;;;;;;5061725;28;20026;-36
2021/01/29 12:56:19;;;;;;;0.47;0.43;;;17.20;53.70;;;;;;5043043;28;20049;-36
2021/01/29 12:58:46;;;;;;;0.55;0.43;;;17.20;53.70;;;;;;5051217;28;20074;-37
2021/01/29 13:01:43;;;;;;;0.90;0.65;;;17.20;53.70;;;;;;5063046;28;20033;-36
2021/01/29 13:04:16;;;;;;;2.35;0.60;;;17.20;53.70;;;;;;5063007;28;20036;-36
2021/01/29 13:07:15;;;;;;;1.00;0.60;;;17.20;53.70;;;;;;5063171;28;20055;-36
2021/01/29 13:09:57;;;;;;;1.05;0.60;;;17.20;53.70;;;;;;5062896;28;20052;-36
2021/01/29 13:12:47;;;;;;;0.60;0.60;;;17.20;53.70;;;;;;5083346;28;20148;-36
2021/01/29 13:15:32;;;;;;;0.63;0.60;;;17.20;53.70;;;;;;5073220;28;20111;-36
2021/01/29 13:18:03;;;;;;;0.82;0.57;;;17.20;53.80;;;;;;5064427;28;20029;-36
2021/01/29 13:20:32;;;;;;;0.70;0.50;;;17.20;53.80;;;;;;5063106;28;20089;-36
2021/01/29 13:23:19;;;;;;;0.95;0.70;;;17.20;53.70;;;;;;5062863;28;20036;-37
2021/01/29 13:26:12;;;;;;;0.50;0.50;;;17.20;53.70;;;;;;5064179;28;20032;-36
2021/01/29 13:28:40;;;;;;;0.55;0.50;;;17.10;53.60;;;;;;5063614;28;20052;-36
2021/01/29 13:31:24;;;;;;;0.75;0.55;;;17.10;53.80;;;;;;5063871;28;20028;-36
2021/01/29 13:33:52;;;;;;;0.98;0.60;;;17.10;53.80;;;;;;5062904;28;20040;-36
2021/01/29 13:36:38;;;;;;;0.70;0.60;;;17.10;53.80;;;;;;5062884;28;20028;-36
2021/01/29 13:39:15;;;;;;;0.60;0.60;;;17.10;53.80;;;;;;5064068;28;20112;-36
2021/01/29 13:41:48;;;;;;;0.57;0.52;;;17.10;53.70;;;;;;5062710;28;20024;-36
2021/01/29 13:44:39;;;;;;;1.10;0.90;;;17.10;53.80;;;;;;5092654;28;20060;-36
2021/01/29 13:47:07;;;;;;;0.75;0.70;;;17.10;53.70;;;;;;5052395;28;20063;-37
2021/01/29 13:49:42;;;;;;;0.90;0.60;;;17.10;53.80;;;;;;5063768;28;20084;-36
2021/01/29 13:52:27;;;;;;;0.75;0.60;;;17.10;53.80;;;;;;5055459;28;21149;-37
2021/01/29 13:54:54;;;;;;;0.80;0.68;;;17.10;53.80;;;;;;5060155;28;20017;-36
2021/01/29 13:57:39;;;;;;;0.77;0.57;;;17.10;53.70;;;;;;5066762;28;20059;-36